Time;durP1;ratioP1;P1;durP2;ratioP2;P2;SDS_P1;SDS_P2;PMS_P1;PMS_P2;Temp;Humidity;BMP_temperature;BMP_pressure;BME280_temperature;BME280_humidity;BME280_pressure;Samples;Min_cycle;Max_cycle;Signal;HPM_P1;HPM_P2
2022/04/10 00:00:46;;;;;;;4.07;1.00;;;;;;;5.57;77.23;96323.13;5041718;28;20204;-67
2022/04/10 00:03:12;;;;;;;1.07;0.90;;;;;;;5.56;76.76;96320.66;5041149;28;20209;-67
2022/04/10 00:05:40;;;;;;;2.03;1.20;;;;;;;5.83;76.60;96310.22;5041725;28;20235;-67
2022/04/10 00:08:07;;;;;;;0.90;0.73;;;;;;;5.68;76.48;96322.13;5041926;28;20701;-68
2022/04/10 00:10:34;;;;;;;6.70;1.57;;;;;;;5.60;76.78;96320.25;5040731;28;20217;-68
2022/04/10 00:13:00;;;;;;;4.10;1.10;;;;;;;5.66;76.75;96322.25;5041567;28;20197;-68
2022/04/10 00:15:27;;;;;;;0.90;0.90;;;;;;;5.68;76.71;96322.13;5041904;28;20197;-67
2022/04/10 00:17:54;;;;;;;2.33;1.33;;;;;;;5.65;76.55;96335.47;5041220;28;20229;-68
2022/04/10 00:20:20;;;;;;;1.27;0.97;;;;;;;5.55;76.41;96329.50;5041137;28;20216;-68
2022/04/10 00:22:49;;;;;;;0.80;0.70;;;;;;;5.72;76.79;96329.53;5040860;28;20654;-67
2022/04/10 00:25:17;;;;;;;0.97;0.90;;;;;;;5.35;77.55;96340.97;5041599;28;20224;-68
2022/04/10 00:27:45;;;;;;;1.20;1.00;;;;;;;5.40;77.16;96336.16;5041284;28;20224;-68
2022/04/10 00:30:13;;;;;;;0.73;0.73;;;;;;;5.32;77.46;96333.44;5041058;28;20205;-68
2022/04/10 00:32:40;;;;;;;1.30;1.03;;;;;;;5.39;77.05;96324.03;5040356;28;20205;-68
2022/04/10 00:35:08;;;;;;;1.10;1.00;;;;;;;5.70;76.18;96333.25;5041762;28;20200;-68
2022/04/10 00:37:35;;;;;;;3.60;1.30;;;;;;;5.79;76.10;96327.19;5041436;28;20217;-68
2022/04/10 00:40:04;;;;;;;1.83;1.30;;;;;;;5.82;76.25;96332.13;5040468;28;20205;-67
2022/04/10 00:42:31;;;;;;;1.17;0.90;;;;;;;5.78;75.95;96331.59;5040439;28;20212;-68
2022/04/10 00:44:58;;;;;;;1.23;1.10;;;;;;;5.43;76.28;96330.63;5041528;28;20201;-67
2022/04/10 00:47:24;;;;;;;0.80;0.70;;;;;;;5.53;76.31;96332.22;5040225;28;20229;-68
2022/04/10 00:49:51;;;;;;;1.77;1.23;;;;;;;5.52;76.60;96325.38;5040596;28;20208;-67
2022/04/10 00:52:19;;;;;;;5.60;2.00;;;;;;;5.69;76.61;96328.97;5041327;28;20205;-68
2022/04/10 00:54:46;;;;;;;2.53;1.43;;;;;;;5.54;77.22;96330.44;5040728;28;20842;-68
2022/04/10 00:57:15;;;;;;;6.27;1.30;;;;;;;5.60;77.23;96327.25;5040229;28;20224;-68
2022/04/10 00:59:41;;;;;;;1.33;0.97;;;;;;;5.63;76.79;96332.19;5040839;28;20201;-67
2022/04/10 01:02:08;;;;;;;1.87;1.23;;;;;;;5.54;77.20;96336.50;5040919;28;20213;-67
2022/04/10 01:04:36;;;;;;;1.87;1.43;;;;;;;5.46;77.32;96327.75;5040453;28;20208;-68
2022/04/10 01:07:05;;;;;;;1.83;1.10;;;;;;;5.65;77.44;96322.41;5040382;28;20629;-68
2022/04/10 01:09:32;;;;;;;1.47;1.07;;;;;;;5.38;77.71;96332.03;5040143;28;20209;-67
2022/04/10 01:11:58;;;;;;;1.27;1.00;;;;;;;5.39;77.98;96329.25;5040782;28;20896;-67
2022/04/10 01:14:27;;;;;;;1.60;1.03;;;;;;;5.32;78.70;96329.97;5040012;28;20201;-68
2022/04/10 01:16:54;;;;;;;1.63;1.00;;;;;;;5.26;79.11;96334.00;5040980;28;20225;-68
2022/04/10 01:19:21;;;;;;;1.43;0.83;;;;;;;5.42;78.36;96328.97;5041048;28;20209;-68
2022/04/10 01:21:53;;;;;;;4.07;2.67;;;;;;;5.71;77.88;96329.66;5040595;28;20235;-68
2022/04/10 01:24:21;;;;;;;2.03;1.17;;;;;;;5.55;78.24;96332.91;5040770;28;20231;-68
2022/04/10 01:26:48;;;;;;;1.23;0.90;;;;;;;5.23;78.78;96331.66;5040459;28;20217;-66
2022/04/10 01:29:15;;;;;;;7.20;1.40;;;;;;;5.49;79.08;96328.25;5040198;28;20225;-68
2022/04/10 01:31:44;;;;;;;2.07;1.50;;;;;;;5.64;78.41;96331.25;5040974;28;20201;-68
2022/04/10 01:34:13;;;;;;;1.63;1.10;;;;;;;5.43;78.66;96335.84;5040714;28;20209;-68
2022/04/10 01:36:40;;;;;;;2.30;1.37;;;;;;;5.34;79.05;96341.13;5040571;28;20279;-68
2022/04/10 01:39:09;;;;;;;2.27;1.17;;;;;;;5.40;79.40;96338.75;5040039;28;20201;-68
2022/04/10 01:41:37;;;;;;;5.23;1.17;;;;;;;5.50;79.23;96334.31;5040314;28;20304;-68
2022/04/10 01:44:06;;;;;;;1.93;0.80;;;;;;;5.30;79.88;96345.81;5039361;28;20204;-68
2022/04/10 01:46:34;;;;;;;2.87;1.30;;;;;;;5.25;80.18;96345.41;5040454;28;20229;-67
2022/04/10 01:49:01;;;;;;;3.80;1.73;;;;;;;5.05;80.59;96343.81;5040866;28;20593;-68
2022/04/10 01:51:27;;;;;;;2.33;1.20;;;;;;;5.02;80.45;96346.69;5040813;28;20212;-68
2022/04/10 01:53:55;;;;;;;7.63;1.17;;;;;;;5.15;80.77;96357.66;5039751;28;20228;-68
2022/04/10 01:56:22;;;;;;;2.37;1.40;;;;;;;5.09;80.74;96349.56;5040610;28;20221;-68
2022/04/10 01:58:52;;;;;;;1.83;1.40;;;;;;;5.15;80.90;96347.22;5040465;28;20194;-69
2022/04/10 02:01:20;;;;;;;2.43;1.50;;;;;;;5.07;81.27;96354.94;5039726;28;20205;-68
2022/04/10 02:03:47;;;;;;;3.10;1.70;;;;;;;5.07;81.06;96351.50;5039814;28;20216;-69
2022/04/10 02:06:14;;;;;;;6.77;2.00;;;;;;;5.07;81.26;96351.50;5040075;28;20971;-66
2022/04/10 02:08:42;;;;;;;2.33;1.13;;;;;;;4.94;81.98;96354.41;5039684;28;20221;-67
2022/04/10 02:11:12;;;;;;;4.27;1.20;;;;;;;5.31;81.09;96357.91;5040698;28;20212;-68
2022/04/10 02:13:38;;;;;;;2.57;1.50;;;;;;;5.20;80.82;96350.22;5040363;28;20254;-67
2022/04/10 02:16:08;;;;;;;9.90;1.60;;;;;;;5.16;81.18;96351.47;5039797;28;20217;-67
2022/04/10 02:18:35;;;;;;;3.37;1.40;;;;;;;4.99;81.50;96351.38;5039726;28;20197;-68
2022/04/10 02:21:01;;;;;;;6.23;1.80;;;;;;;4.87;82.12;96355.94;5039508;28;20205;-67
2022/04/10 02:23:28;;;;;;;4.73;1.87;;;;;;;4.88;81.87;96359.38;5039132;28;20201;-68
2022/04/10 02:25:55;;;;;;;3.07;1.60;;;;;;;4.98;81.83;96361.00;5040024;28;20210;-67
2022/04/10 02:28:21;;;;;;;3.53;1.40;;;;;;;4.86;82.42;96366.50;5040414;28;20225;-67
2022/04/10 02:30:48;;;;;;;9.17;1.47;;;;;;;4.74;82.88;96361.59;5039586;28;20205;-68
2022/04/10 02:33:16;;;;;;;3.47;2.07;;;;;;;5.04;81.93;96364.81;5040264;28;20232;-68
2022/04/10 02:35:43;;;;;;;3.63;1.97;;;;;;;4.87;81.88;96363.78;5044153;28;20201;-68
2022/04/10 02:38:09;;;;;;;5.03;2.17;;;;;;;4.58;83.08;96367.38;5041908;28;20197;-68
2022/04/10 02:40:36;;;;;;;2.03;1.30;;;;;;;4.55;83.60;96361.59;5043981;28;21019;-68
2022/04/10 02:43:03;;;;;;;4.60;2.17;;;;;;;4.68;82.84;96359.53;5045164;28;20205;-67
2022/04/10 02:45:30;;;;;;;3.23;1.90;;;;;;;4.72;82.31;96369.53;5044917;28;20223;-67
2022/04/10 02:47:56;;;;;;;5.97;1.93;;;;;;;4.55;82.99;96361.59;5042618;28;20236;-68
2022/04/10 02:50:24;;;;;;;4.47;2.23;;;;;;;4.73;83.13;96360.75;5043746;28;20212;-68
2022/04/10 02:52:51;;;;;;;3.17;1.60;;;;;;;4.69;83.12;96363.78;5043314;28;21099;-68
2022/04/10 02:55:18;;;;;;;6.33;1.70;;;;;;;4.67;82.72;96363.09;5043055;28;20212;-67
2022/04/10 02:57:45;;;;;;;2.50;1.90;;;;;;;4.66;82.41;96371.88;5043097;28;20228;-66
2022/04/10 03:00:12;;;;;;;2.57;1.60;;;;;;;4.77;82.08;96371.75;5043241;28;20233;-68
2022/04/10 03:02:40;;;;;;;3.43;1.70;;;;;;;4.83;81.52;96364.19;5042609;28;20212;-67
2022/04/10 03:05:07;;;;;;;5.37;1.63;;;;;;;4.84;81.58;96365.84;5043054;28;20201;-67
2022/04/10 03:07:35;;;;;;;6.07;2.53;;;;;;;4.88;81.85;96364.59;5042803;28;20236;-67
2022/04/10 03:10:02;;;;;;;2.33;1.53;;;;;;;4.58;82.43;96366.53;5042506;28;20211;-68
2022/04/10 03:12:28;;;;;;;1.70;1.40;;;;;;;4.54;82.35;96365.16;5041097;28;20704;-68
2022/04/10 03:14:55;;;;;;;3.13;1.97;;;;;;;4.50;82.41;96371.63;5043016;28;20201;-68
2022/04/10 03:17:22;;;;;;;2.50;1.67;;;;;;;4.39;82.77;96361.31;5043613;28;20232;-68
2022/04/10 03:19:48;;;;;;;2.33;1.50;;;;;;;4.41;82.46;96355.00;5042086;28;21075;-68
2022/04/10 03:22:15;;;;;;;3.63;2.10;;;;;;;4.25;82.95;96369.53;5042156;28;20212;-67
2022/04/10 03:24:43;;;;;;;1.70;1.13;;;;;;;4.51;82.58;96366.25;5042535;28;20875;-67
2022/04/10 03:27:10;;;;;;;4.40;1.70;;;;;;;4.40;82.10;96368.19;5041795;28;20225;-67
2022/04/10 03:29:36;;;;;;;4.73;1.43;;;;;;;4.33;82.75;96377.53;5041704;28;20247;-67
2022/04/10 03:32:03;;;;;;;3.07;1.77;;;;;;;4.31;83.20;96369.81;5043371;28;20610;-68
2022/04/10 03:34:29;;;;;;;2.43;1.53;;;;;;;4.33;82.84;96372.31;5042087;28;20586;-68
2022/04/10 03:36:56;;;;;;;3.23;1.93;;;;;;;4.26;83.19;96371.19;5042600;28;20221;-67
2022/04/10 03:39:23;;;;;;;5.77;2.63;;;;;;;4.33;82.33;96377.53;5042595;28;20205;-67
2022/04/10 03:41:52;;;;;;;2.77;1.77;;;;;;;4.50;82.58;96376.84;5041812;28;21133;-68
2022/04/10 03:44:18;;;;;;;2.73;1.50;;;;;;;4.16;82.29;96379.97;5041708;28;20201;-67
2022/04/10 03:46:45;;;;;;;4.07;1.80;;;;;;;4.14;82.87;96384.47;5043545;28;20237;-67
2022/04/10 03:49:11;;;;;;;2.90;1.57;;;;;;;4.23;82.91;96389.72;5042616;28;20224;-67
2022/04/10 03:51:38;;;;;;;9.80;2.20;;;;;;;4.06;82.65;96395.59;5042104;28;20954;-68
2022/04/10 03:54:05;;;;;;;12.90;1.90;;;;;;;4.25;82.38;96395.59;5042035;28;20205;-68
2022/04/10 03:56:31;;;;;;;3.13;1.63;;;;;;;4.27;82.10;96391.09;5041938;28;20229;-68
2022/04/10 03:58:59;;;;;;;3.17;1.80;;;;;;;4.42;82.70;96392.34;5042896;28;20243;-67
2022/04/10 04:01:26;;;;;;;2.90;1.53;;;;;;;4.22;82.40;96398.50;5043758;28;20205;-67
2022/04/10 04:03:52;;;;;;;4.40;1.93;;;;;;;4.19;82.95;96401.38;5042471;28;20201;-68
2022/04/10 04:06:19;;;;;;;2.80;1.73;;;;;;;4.23;82.57;96405.38;5042703;28;20229;-68
2022/04/10 04:08:45;;;;;;;2.53;1.93;;;;;;;4.14;83.10;96402.72;5042360;28;20251;-68
2022/04/10 04:11:12;;;;;;;1.83;1.23;;;;;;;4.10;83.48;96401.34;5042677;28;20212;-68
2022/04/10 04:13:40;;;;;;;3.17;1.30;;;;;;;4.10;83.46;96412.63;5042710;28;20211;-67
2022/04/10 04:16:08;;;;;;;14.30;2.20;;;;;;;4.22;84.00;96410.72;5042294;28;20223;-68
2022/04/10 04:18:35;;;;;;;3.17;1.90;;;;;;;3.80;84.81;96419.66;5042505;28;20201;-68
2022/04/10 04:21:02;;;;;;;6.23;1.83;;;;;;;3.97;84.23;96422.47;5041590;28;20201;-67
2022/04/10 04:23:29;;;;;;;3.27;1.57;;;;;;;4.05;84.03;96420.00;5041576;28;20209;-68
2022/04/10 04:25:55;;;;;;;3.57;1.50;;;;;;;4.12;83.57;96430.75;5042412;28;20201;-68
2022/04/10 04:28:22;;;;;;;2.20;1.93;;;;;;;4.01;83.81;96430.81;5040541;28;20231;-68
2022/04/10 04:30:48;;;;;;;3.07;1.90;;;;;;;3.92;84.87;96434.22;5042106;28;20200;-68
2022/04/10 04:33:17;;;;;;;2.20;1.90;;;;;;;4.25;83.89;96432.97;5040582;28;20216;-68
2022/04/10 04:35:44;;;;;;;6.53;2.80;;;;;;;3.99;84.09;96441.41;5040800;28;20197;-68
2022/04/10 04:38:10;;;;;;;5.07;3.17;;;;;;;3.92;84.67;96442.91;5041393;28;20241;-67
2022/04/10 04:40:37;;;;;;;3.20;2.47;;;;;;;4.14;84.05;96447.06;5042089;28;20197;-67
2022/04/10 04:43:03;;;;;;;5.17;2.23;;;;;;;4.16;84.00;96450.38;5041689;28;20205;-68
2022/04/10 04:45:30;;;;;;;4.17;2.63;;;;;;;4.09;83.92;96463.13;5041852;28;20205;-67
2022/04/10 04:47:57;;;;;;;4.40;2.50;;;;;;;4.11;83.96;96466.44;5041779;28;20229;-68
2022/04/10 04:50:25;;;;;;;3.90;1.83;;;;;;;4.33;83.83;96464.41;5041488;28;20260;-68
2022/04/10 04:52:51;;;;;;;2.77;2.20;;;;;;;4.28;83.30;96457.97;5041057;28;20201;-68
2022/04/10 04:55:18;;;;;;;2.97;1.67;;;;;;;4.31;83.56;96466.31;5041652;28;20219;-67
2022/04/10 04:57:44;;;;;;;11.20;1.97;;;;;;;4.33;83.84;96468.81;5040697;28;20228;-68
2022/04/10 05:00:12;;;;;;;4.90;2.47;;;;;;;4.23;84.29;96470.56;5042027;28;20205;-68
2022/04/10 05:02:39;;;;;;;4.97;2.70;;;;;;;4.45;83.92;96468.56;5040617;28;20197;-67
2022/04/10 05:05:06;;;;;;;3.27;1.80;;;;;;;4.52;83.13;96466.22;5041144;28;20197;-67
2022/04/10 05:07:34;;;;;;;4.83;2.60;;;;;;;4.74;83.01;96472.03;5041480;28;20235;-68
2022/04/10 05:10:01;;;;;;;4.13;1.93;;;;;;;4.50;82.92;96481.22;5038973;28;20228;-67
2022/04/10 05:12:28;;;;;;;4.43;2.40;;;;;;;4.49;83.09;96492.59;5038274;28;20212;-67
2022/04/10 05:14:54;;;;;;;9.00;2.17;;;;;;;4.01;85.13;96496.00;5038551;28;20205;-66
2022/04/10 05:17:21;;;;;;;4.90;3.00;;;;;;;4.14;84.27;96491.38;5038157;28;20228;-66
2022/04/10 05:19:47;;;;;;;6.27;3.00;;;;;;;4.06;85.19;96494.69;5037610;28;20714;-67
2022/04/10 05:22:14;;;;;;;8.60;2.70;;;;;;;3.92;85.75;96486.38;5037042;28;20212;-66
2022/04/10 05:24:42;;;;;;;5.23;1.67;;;;;;;4.46;84.41;96498.09;5037701;28;20756;-66
2022/04/10 05:27:10;;;;;;;4.30;2.70;;;;;;;4.17;84.60;96502.38;5037852;28;20239;-66
2022/04/10 05:29:36;;;;;;;2.80;2.07;;;;;;;4.09;85.43;96512.66;5037470;28;20221;-66
2022/04/10 05:32:03;;;;;;;2.43;1.80;;;;;;;4.34;84.11;96513.03;5038025;28;20220;-68
2022/04/10 05:34:30;;;;;;;6.40;2.90;;;;;;;4.37;83.88;96509.31;5037222;28;20220;-67
2022/04/10 05:36:56;;;;;;;2.17;1.40;;;;;;;4.41;84.63;96515.94;5037675;28;20240;-67
2022/04/10 05:39:23;;;;;;;7.77;2.37;;;;;;;4.60;83.59;96521.19;5038207;28;20212;-67
2022/04/10 05:41:51;;;;;;;3.97;1.83;;;;;;;4.81;82.98;96525.34;5037888;28;20223;-67
2022/04/10 05:44:17;;;;;;;2.83;2.30;;;;;;;4.76;82.36;96526.72;5037378;28;20281;-67
2022/04/10 05:46:44;;;;;;;4.67;2.23;;;;;;;4.64;82.06;96533.03;5039227;28;20239;-66
2022/04/10 05:49:10;;;;;;;2.03;1.73;;;;;;;4.36;84.26;96536.38;5039452;28;20229;-66
2022/04/10 05:51:37;;;;;;;3.27;1.77;;;;;;;4.25;84.22;96544.28;5037911;28;20201;-66
2022/04/10 05:54:04;;;;;;;4.03;2.17;;;;;;;4.45;84.20;96535.56;5037295;28;20278;-67
2022/04/10 05:56:30;;;;;;;8.63;2.37;;;;;;;4.68;83.24;96537.81;5037881;28;20228;-67
2022/04/10 05:58:58;;;;;;;3.27;1.70;;;;;;;4.80;82.95;96534.16;5037942;28;20208;-67
2022/04/10 06:01:25;;;;;;;2.57;1.60;;;;;;;4.56;82.99;96535.47;5037426;28;20209;-66
2022/04/10 06:03:51;;;;;;;1.27;1.07;;;;;;;4.56;83.12;96535.47;5036988;28;20197;-67
2022/04/10 06:06:18;;;;;;;2.67;1.80;;;;;;;4.88;82.09;96539.50;5038331;28;21064;-67
2022/04/10 06:08:45;;;;;;;4.47;2.00;;;;;;;4.94;81.76;96549.44;5039089;28;20307;-66
2022/04/10 06:11:11;;;;;;;3.47;2.20;;;;;;;4.89;81.36;96539.38;5041526;28;20205;-66
2022/04/10 06:13:38;;;;;;;2.70;1.80;;;;;;;4.90;81.10;96556.69;5041045;28;20599;-66
2022/04/10 06:16:06;;;;;;;3.10;1.97;;;;;;;5.14;81.56;96554.53;5042066;28;22535;-66
2022/04/10 06:18:32;;;;;;;5.73;2.63;;;;;;;5.17;80.93;96556.06;5042000;28;20208;-67
2022/04/10 06:20:59;;;;;;;10.73;2.97;;;;;;;5.05;81.59;96555.34;5040030;28;20201;-66
2022/04/10 06:23:25;;;;;;;2.27;1.67;;;;;;;5.19;80.75;96561.94;5037461;28;20685;-67
2022/04/10 06:25:52;;;;;;;4.30;2.77;;;;;;;5.08;80.99;96570.75;5041477;28;20198;-66
2022/04/10 06:28:18;;;;;;;3.77;1.83;;;;;;;5.17;80.73;96575.16;5041486;28;20205;-66
2022/04/10 06:30:45;;;;;;;4.93;2.27;;;;;;;5.19;80.81;96567.97;5040187;28;20221;-66
2022/04/10 06:33:14;;;;;;;14.13;2.43;;;;;;;5.13;81.45;96568.56;5040034;28;20311;-66
2022/04/10 06:35:41;;;;;;;3.47;1.80;;;;;;;5.25;80.22;96572.66;5040199;28;20232;-66
2022/04/10 06:38:07;;;;;;;9.13;2.87;;;;;;;5.30;80.17;96580.94;5040681;28;20259;-66
2022/04/10 06:40:34;;;;;;;5.67;2.50;;;;;;;5.29;80.24;96574.03;5039242;28;20208;-65
2022/04/10 06:43:01;;;;;;;3.07;2.20;;;;;;;5.62;79.43;96578.88;5039728;28;20204;-66
2022/04/10 06:45:27;;;;;;;2.47;1.37;;;;;;;5.36;80.43;96585.63;5041992;28;20201;-67
2022/04/10 06:47:54;;;;;;;3.43;2.50;;;;;;;5.62;79.30;96582.28;5040881;28;20708;-66
2022/04/10 06:50:22;;;;;;;16.00;1.90;;;;;;;5.98;78.66;96578.16;5040945;28;21286;-66
2022/04/10 06:52:48;;;;;;;2.47;1.50;;;;;;;5.42;78.46;96585.03;5040724;28;20234;-66
2022/04/10 06:55:17;;;;;;;3.10;1.63;;;;;;;5.39;79.47;96587.94;5041091;28;20212;-67
2022/04/10 06:57:43;;;;;;;8.87;2.67;;;;;;;5.36;79.41;96587.38;5040260;28;20982;-66
2022/04/10 07:00:11;;;;;;;3.57;2.23;;;;;;;5.34;79.59;96587.53;5042251;28;20237;-66
2022/04/10 07:02:37;;;;;;;3.63;2.00;;;;;;;5.41;78.49;96586.03;5041084;28;20270;-67
2022/04/10 07:05:05;;;;;;;6.47;2.83;;;;;;;5.86;77.71;96579.28;5041787;28;20201;-66
2022/04/10 07:07:33;;;;;;;3.43;2.20;;;;;;;6.02;77.18;96582.13;5043068;28;20229;-66
2022/04/10 07:09:59;;;;;;;3.47;2.13;;;;;;;5.83;77.49;96580.41;5043064;28;20572;-65
2022/04/10 07:12:26;;;;;;;3.00;2.10;;;;;;;6.05;76.58;96590.53;5042116;28;20826;-65
2022/04/10 07:14:53;;;;;;;5.50;2.33;;;;;;;5.99;75.96;96593.69;5042304;28;20819;-65
2022/04/10 07:17:19;;;;;;;5.30;2.73;;;;;;;5.83;76.89;96593.47;5042338;28;20316;-65
2022/04/10 07:19:46;;;;;;;4.90;2.77;;;;;;;5.86;76.59;96589.75;5039848;28;20197;-67
2022/04/10 07:24:58;;;;;;;3.87;1.50;;;;;;;6.20;75.46;96584.72;5042227;28;20216;-67
2022/04/10 07:27:24;;;;;;;4.03;2.20;;;;;;;6.09;76.97;96584.06;5040932;28;20649;-66
2022/04/10 07:29:51;;;;;;;3.53;2.30;;;;;;;5.93;75.03;96593.44;5039395;28;20224;-66
2022/04/10 07:32:17;;;;;;;5.93;3.10;;;;;;;6.29;75.69;96588.28;5039264;28;20220;-66
2022/04/10 07:34:44;;;;;;;4.27;2.80;;;;;;;6.78;73.71;96586.13;5039026;28;20201;-66
2022/04/10 07:37:10;;;;;;;5.17;2.87;;;;;;;6.78;71.86;96584.34;5038991;28;20217;-67
2022/04/10 07:39:37;;;;;;;4.40;2.87;;;;;;;6.59;72.74;96591.44;5039522;28;20208;-67
2022/04/10 07:42:06;;;;;;;12.50;2.67;;;;;;;7.08;71.75;96591.88;5039608;28;20561;-66
2022/04/10 07:44:32;;;;;;;7.67;3.20;;;;;;;7.01;71.96;96592.63;5038563;28;20233;-66
2022/04/10 07:49:43;;;;;;;12.63;2.67;;;;;;;7.21;71.42;96594.16;5040556;28;20232;-65
2022/04/10 07:52:10;;;;;;;4.73;2.70;;;;;;;7.59;70.98;96592.91;5039697;28;20201;-67
2022/04/10 07:54:36;;;;;;;10.13;2.27;;;;;;;7.40;69.29;96594.84;5038957;28;20591;-65
2022/04/10 07:57:04;;;;;;;2.93;1.53;;;;;;;7.32;65.81;96603.44;5038683;28;20335;-66
2022/04/10 07:59:31;;;;;;;2.30;1.73;;;;;;;7.47;65.48;96615.09;5039078;28;20700;-67
2022/04/10 08:01:57;;;;;;;2.77;1.83;;;;;;;7.17;63.26;96609.34;5039371;28;20216;-67
2022/04/10 08:04:25;;;;;;;5.03;1.93;;;;;;;7.18;63.15;96612.78;5039031;28;20212;-66
2022/04/10 08:06:52;;;;;;;2.07;1.30;;;;;;;7.18;62.26;96623.25;5039579;28;20225;-66
2022/04/10 08:09:18;;;;;;;1.50;1.40;;;;;;;7.27;62.57;96618.78;5039077;28;20220;-67
2022/04/10 08:11:45;;;;;;;1.97;1.30;;;;;;;7.42;61.57;96617.31;5039631;28;21245;-66
2022/04/10 08:14:13;;;;;;;2.80;1.60;;;;;;;7.58;58.51;96622.72;5039016;28;20210;-65
2022/04/10 08:16:39;;;;;;;2.30;1.50;;;;;;;7.85;59.05;96617.38;5039234;28;20221;-67
2022/04/10 08:19:06;;;;;;;2.07;1.37;;;;;;;7.95;56.27;96618.13;5039772;28;20228;-67
2022/04/10 08:21:33;;;;;;;2.63;1.87;;;;;;;7.92;57.18;96616.63;5040398;28;20212;-67
2022/04/10 08:23:59;;;;;;;2.73;1.80;;;;;;;7.92;56.09;96618.44;5036963;28;20197;-67
2022/04/10 08:26:26;;;;;;;3.00;1.90;;;;;;;7.95;58.21;96615.50;5037039;28;20224;-66
2022/04/10 08:28:52;;;;;;;3.30;1.87;;;;;;;8.45;56.49;96616.56;5039496;28;20197;-66
2022/04/10 08:31:20;;;;;;;4.30;2.03;;;;;;;8.78;55.65;96613.94;5038801;28;20236;-66
2022/04/10 08:33:47;;;;;;;2.10;1.63;;;;;;;8.40;57.59;96618.81;5039405;28;20212;-67
2022/04/10 08:36:13;;;;;;;3.73;2.00;;;;;;;8.64;57.22;96625.03;5039161;28;20256;-67
2022/04/10 08:38:40;;;;;;;4.07;1.70;;;;;;;8.69;53.79;96626.25;5039748;28;20212;-65
2022/04/10 08:41:08;;;;;;;2.37;1.67;;;;;;;8.87;54.59;96620.88;5039226;28;20263;-66
2022/04/10 08:43:36;;;;;;;3.53;2.00;;;;;;;8.52;53.08;96624.47;5038139;28;20208;-65
2022/04/10 08:46:04;;;;;;;4.47;1.80;;;;;;;8.65;54.88;96624.88;5038846;28;20209;-65
2022/04/10 08:48:32;;;;;;;2.33;1.43;;;;;;;8.81;51.64;96626.78;5038817;28;20614;-66
2022/04/10 08:50:59;;;;;;;3.33;1.70;;;;;;;8.98;50.57;96621.44;5040784;28;20213;-67
2022/04/10 08:53:26;;;;;;;1.83;1.17;;;;;;;9.28;52.71;96626.16;5042594;28;20209;-67
2022/04/10 08:55:54;;;;;;;3.33;2.07;;;;;;;9.09;52.36;96623.78;5040399;28;20201;-66
2022/04/10 08:58:21;;;;;;;1.93;1.27;;;;;;;8.47;51.58;96631.19;5037551;28;21069;-67
2022/04/10 09:00:48;;;;;;;2.13;1.00;;;;;;;8.38;51.20;96636.53;5037576;28;20197;-67
2022/04/10 09:03:15;;;;;;;1.50;1.00;;;;;;;8.40;49.92;96629.31;5037474;28;20291;-67
2022/04/10 09:05:45;;;;;;;3.00;1.33;;;;;;;8.96;52.84;96633.94;5036460;28;20248;-67
2022/04/10 09:08:13;;;;;;;3.57;1.30;;;;;;;9.40;50.67;96627.50;5037099;28;20193;-68
2022/04/10 09:10:53;;;;;;;1.77;1.17;;;;;;;9.39;48.71;96631.09;5037704;28;20228;-66
2022/04/10 09:13:25;;;;;;;3.03;1.07;;;;;;;9.30;49.17;96626.81;5036327;28;20214;-65
2022/04/10 09:15:51;;;;;;;1.97;1.37;;;;;;;9.10;49.28;96631.50;5037089;28;20225;-66
2022/04/10 09:18:18;;;;;;;1.33;1.10;;;;;;;9.02;48.56;96628.00;5038207;28;20255;-66
2022/04/10 09:21:06;;;;;;;1.33;0.90;;;;;;;9.09;48.99;96631.69;5037923;28;20201;-67
2022/04/10 09:23:32;;;;;;;2.33;1.27;;;;;;;8.99;51.95;96633.59;5038000;28;20290;-67
2022/04/10 09:25:59;;;;;;;2.97;1.80;;;;;;;9.51;48.77;96627.19;5037030;28;20681;-66
2022/04/10 09:28:40;;;;;;;1.57;1.07;;;;;;;9.61;46.82;96622.59;5037403;28;20216;-65
2022/04/10 09:31:24;;;;;;;1.43;1.00;;;;;;;9.52;47.60;96626.19;5037845;28;20221;-66
2022/04/10 09:33:52;;;;;;;2.43;1.03;;;;;;;9.26;48.39;96633.38;5038603;28;20207;-65
2022/04/10 09:36:33;;;;;;;1.73;1.00;;;;;;;9.75;48.04;96628.88;5038424;28;20336;-67
2022/04/10 09:38:59;;;;;;;5.17;1.47;;;;;;;9.27;48.59;96625.31;5038983;28;20197;-67
2022/04/10 09:41:26;;;;;;;6.30;1.50;;;;;;;9.80;49.08;96628.38;5037060;28;20208;-66
2022/04/10 09:43:53;;;;;;;1.63;1.30;;;;;;;9.55;46.36;96624.09;5037019;28;20197;-67
2022/04/10 09:46:19;;;;;;;4.10;1.30;;;;;;;9.66;47.29;96622.94;5038226;28;20225;-67
2022/04/10 09:48:46;;;;;;;2.93;1.53;;;;;;;9.62;48.86;96622.44;5040070;28;20208;-65
2022/04/10 09:51:12;;;;;;;5.63;1.57;;;;;;;9.96;47.04;96613.47;5038286;28;20827;-66
2022/04/10 09:53:40;;;;;;;2.93;1.30;;;;;;;10.50;49.73;96618.03;5036742;28;20212;-67
2022/04/10 09:56:07;;;;;;;3.83;1.67;;;;;;;9.94;47.77;96625.94;5036984;28;20232;-66
2022/04/10 09:58:34;;;;;;;1.73;1.13;;;;;;;9.42;49.84;96638.66;5038555;28;20208;-66
2022/04/10 10:01:03;;;;;;;1.90;1.27;;;;;;;9.35;50.67;96635.84;5038884;28;20220;-67
2022/04/10 10:03:33;;;;;;;2.93;1.13;;;;;;;9.18;48.16;96638.59;5038060;28;20720;-65
2022/04/10 10:06:00;;;;;;;3.30;1.10;;;;;;;8.98;47.58;96631.94;5038534;28;20208;-66
2022/04/10 10:08:28;;;;;;;2.97;1.47;;;;;;;9.22;48.81;96632.06;5035829;28;20217;-67
2022/04/10 10:10:57;;;;;;;2.60;1.47;;;;;;;9.37;49.79;96617.31;5038299;28;20221;-66
2022/04/10 10:13:26;;;;;;;3.83;1.37;;;;;;;9.78;49.89;96620.66;5038355;28;20335;-66
2022/04/10 10:15:54;;;;;;;3.00;1.60;;;;;;;10.07;46.25;96605.25;5039948;28;20681;-66
2022/04/10 10:18:21;;;;;;;7.40;1.87;;;;;;;10.27;44.87;96614.44;5039326;28;20627;-66
2022/04/10 10:20:48;;;;;;;3.53;1.90;;;;;;;9.74;45.64;96616.72;5038827;28;20211;-65
2022/04/10 10:23:16;;;;;;;6.53;2.13;;;;;;;9.58;47.48;96617.69;5039459;28;20201;-66
2022/04/10 10:25:48;;;;;;;10.30;5.03;;;;;;;9.94;46.13;96618.06;5039052;28;20924;-66
2022/04/10 10:28:46;;;;;;;4.77;2.37;;;;;;;9.87;46.07;96622.31;5040280;28;20209;-66
2022/04/10 10:31:32;;;;;;;3.90;1.80;;;;;;;10.45;47.39;96620.34;5039395;28;20279;-65
2022/04/10 10:34:03;;;;;;;3.77;1.50;;;;;;;10.47;48.73;96613.94;5039373;28;20205;-66
2022/04/10 10:36:29;;;;;;;4.93;1.87;;;;;;;10.31;48.04;96613.16;5039866;28;20229;-67
2022/04/10 10:38:57;;;;;;;3.90;1.50;;;;;;;10.00;47.56;96619.22;5038274;28;20198;-66
2022/04/10 10:41:34;;;;;;;1.57;1.07;;;;;;;10.31;48.50;96610.50;5038900;28;20197;-65
2022/04/10 10:44:42;;;;;;;1.87;1.40;;;;;;;10.49;47.65;96609.31;5038069;28;20224;-65
2022/04/10 10:47:21;;;;;;;3.37;1.10;;;;;;;10.56;44.48;96612.09;5038574;28;20233;-66
2022/04/10 10:49:49;;;;;;;2.87;1.47;;;;;;;10.64;45.59;96612.94;5038435;28;20204;-66
2022/04/10 10:52:16;;;;;;;3.03;1.37;;;;;;;10.23;45.74;96607.88;5038240;28;20225;-67
2022/04/10 10:54:46;;;;;;;3.23;1.43;;;;;;;10.42;45.67;96612.78;5041324;28;20208;-67
2022/04/10 10:57:23;;;;;;;2.40;1.13;;;;;;;10.70;45.90;96612.22;5041852;28;20312;-66
2022/04/10 10:59:52;;;;;;;2.57;1.50;;;;;;;10.94;46.90;96612.16;5042706;28;20193;-67
2022/04/10 11:02:21;;;;;;;5.53;1.40;;;;;;;10.73;47.75;96613.72;5042370;28;20201;-65
2022/04/10 11:04:49;;;;;;;2.30;1.50;;;;;;;10.16;42.96;96606.09;5042366;28;20205;-65
2022/04/10 11:07:23;;;;;;;1.13;0.93;;;;;;;10.01;43.64;96613.81;5042113;28;20263;-64
2022/04/10 11:10:00;;;;;;;0.87;0.73;;;;;;;10.12;44.29;96617.91;5041661;28;20658;-66
2022/04/10 11:12:32;;;;;;;4.43;1.63;;;;;;;10.51;44.56;96617.06;5039217;28;20221;-66
2022/04/10 11:15:03;;;;;;;1.20;0.93;;;;;;;10.95;43.56;96612.00;5041032;28;20681;-65
2022/04/10 11:17:32;;;;;;;1.73;1.03;;;;;;;10.84;42.31;96614.16;5039568;28;20216;-66
2022/04/10 11:20:00;;;;;;;2.13;1.23;;;;;;;10.94;43.03;96620.09;5039944;28;20228;-65
2022/04/10 11:22:33;;;;;;;4.00;1.40;;;;;;;10.87;45.53;96613.00;5039785;28;20288;-67
2022/04/10 11:25:01;;;;;;;2.30;1.33;;;;;;;10.58;46.10;96618.03;5041497;28;20346;-65
2022/04/10 11:27:44;;;;;;;1.93;0.97;;;;;;;10.42;46.88;96602.25;5040524;28;20225;-67
2022/04/10 11:30:14;;;;;;;2.80;1.27;;;;;;;10.10;48.73;96614.63;5040104;28;20273;-67
2022/04/10 11:32:42;;;;;;;2.20;1.00;;;;;;;10.16;46.87;96614.78;5039358;28;20662;-67
2022/04/10 11:35:14;;;;;;;4.90;1.47;;;;;;;10.64;46.19;96612.94;5039564;28;21112;-67
2022/04/10 11:37:44;;;;;;;4.60;1.20;;;;;;;10.48;47.21;96602.41;5040264;28;20232;-66
2022/04/10 11:40:12;;;;;;;2.40;1.37;;;;;;;10.48;46.33;96607.66;5039827;28;20284;-68
2022/04/10 11:42:39;;;;;;;5.03;1.10;;;;;;;10.40;44.20;96610.31;5038801;28;20205;-66
2022/04/10 11:45:07;;;;;;;3.87;1.00;;;;;;;10.38;44.58;96609.66;5039185;28;20201;-67
2022/04/10 11:47:37;;;;;;;1.23;0.90;;;;;;;10.54;45.99;96611.47;5039717;28;20290;-65
2022/04/10 11:50:05;;;;;;;2.80;1.23;;;;;;;9.85;51.03;96618.19;5039057;28;20201;-66